createdAt,value
2019-05-22T00:00:31.560Z,88.50
2019-05-22T00:03:03.780Z,88.30
2019-05-22T00:05:35.164Z,88.00
2019-05-22T00:08:09.102Z,88.30
2019-05-22T00:10:41.472Z,88.30
2019-05-22T00:13:14.467Z,88.40
2019-05-22T00:15:47.307Z,88.00
2019-05-22T00:18:17.733Z,88.10
2019-05-22T00:20:49.824Z,88.60
2019-05-22T00:23:22.326Z,88.30
2019-05-22T00:25:55.026Z,88.10
2019-05-22T00:28:25.968Z,88.20
2019-05-22T00:30:57.728Z,88.10
2019-05-22T00:33:28.146Z,88.40
2019-05-22T00:36:01.343Z,87.70
2019-05-22T00:38:31.869Z,88.20
2019-05-22T00:41:05.885Z,88.30
2019-05-22T00:43:39.912Z,88.40
2019-05-22T00:46:11.659Z,88.30
2019-05-22T00:48:46.502Z,88.20
2019-05-22T00:51:36.488Z,88.50
2019-05-22T00:54:25.037Z,88.60
2019-05-22T00:56:56.798Z,88.20
2019-05-22T00:59:36.138Z,88.50
2019-05-22T01:02:19.777Z,87.90
2019-05-22T01:04:51.746Z,88.30
2019-05-22T01:07:23.913Z,88.10
2019-05-22T01:09:58.750Z,88.10
2019-05-22T01:12:33.993Z,88.20
2019-05-22T01:15:07.595Z,88.40
2019-05-22T01:17:38.659Z,88.30
2019-05-22T01:20:12.143Z,88.30
2019-05-22T01:22:42.802Z,88.30
2019-05-22T01:25:15.257Z,88.20
2019-05-22T01:27:47.223Z,88.20
2019-05-22T01:30:24.108Z,88.50
2019-05-22T01:38:39.647Z,88.30
2019-05-22T01:41:28.607Z,88.50
2019-05-22T01:44:00.575Z,88.60
2019-05-22T01:46:33.037Z,88.50
2019-05-22T01:49:04.485Z,88.40
2019-05-22T01:51:36.266Z,88.30
2019-05-22T01:54:09.551Z,88.60
2019-05-22T01:56:41.929Z,88.50
2019-05-22T01:59:12.633Z,88.20
2019-05-22T02:01:42.789Z,88.20
2019-05-22T02:04:14.986Z,88.40
2019-05-22T02:06:46.528Z,88.60
2019-05-22T02:09:27.069Z,88.40
2019-05-22T02:12:01.131Z,88.30
2019-05-22T02:14:33.040Z,88.30
2019-05-22T02:17:05.446Z,88.40
2019-05-22T02:19:36.910Z,88.40
2019-05-22T02:22:07.121Z,88.50
2019-05-22T02:24:38.794Z,88.50
2019-05-22T02:27:10.456Z,88.40
2019-05-22T02:29:42.305Z,88.30
2019-05-22T02:32:14.182Z,88.40
2019-05-22T02:34:44.389Z,88.30
2019-05-22T02:37:16.277Z,88.10
2019-05-22T02:39:48.007Z,88.70
2019-05-22T02:42:21.029Z,88.60
2019-05-22T02:44:53.277Z,88.50
2019-05-22T02:47:25.653Z,88.50
2019-05-22T02:49:58.468Z,88.40
2019-05-22T02:52:28.561Z,88.60
2019-05-22T02:54:59.095Z,88.60
2019-05-22T02:57:31.999Z,88.50
2019-05-22T03:00:03.850Z,88.60
2019-05-22T03:02:37.983Z,88.70
2019-05-22T03:05:11.473Z,88.40
2019-05-22T03:07:42.205Z,88.40
2019-05-22T03:10:13.648Z,88.50
2019-05-22T03:12:45.732Z,88.60
2019-05-22T03:15:20.474Z,88.40
2019-05-22T03:17:52.323Z,88.70
2019-05-22T03:20:26.953Z,89.00
2019-05-22T03:23:28.409Z,88.50
2019-05-22T03:25:58.940Z,88.50
2019-05-22T03:28:29.675Z,88.90
2019-05-22T03:31:00.821Z,88.80
2019-05-22T03:33:31.372Z,89.40
2019-05-22T03:36:10.289Z,88.80
2019-05-22T03:38:42.253Z,89.10
2019-05-22T03:41:13.925Z,88.90
2019-05-22T03:43:46.593Z,88.90
2019-05-22T03:46:36.383Z,88.70
2019-05-22T03:49:06.711Z,89.00
2019-05-22T03:51:37.741Z,89.00
2019-05-22T03:54:09.523Z,88.70
2019-05-22T03:56:41.593Z,88.50
2019-05-22T03:59:11.710Z,89.00
2019-05-22T04:01:43.258Z,88.80
2019-05-22T04:04:16.706Z,90.50
2019-05-22T04:06:48.339Z,91.70
2019-05-22T04:09:20.592Z,91.30
2019-05-22T04:11:52.558Z,90.70
2019-05-22T04:14:25.753Z,90.50
2019-05-22T04:16:56.488Z,90.40
2019-05-22T04:19:45.169Z,90.20
2019-05-22T04:22:00.423Z,90.20
2019-05-22T04:24:31.432Z,90.10
2019-05-22T04:27:03.327Z,89.90
2019-05-22T04:29:33.993Z,90.10
2019-05-22T04:32:12.784Z,90.00
2019-05-22T04:34:43.649Z,90.00
2019-05-22T04:37:14.294Z,90.00
2019-05-22T04:39:46.383Z,90.00
2019-05-22T04:42:17.783Z,90.00
2019-05-22T04:45:11.372Z,90.00
2019-05-22T04:47:45.193Z,89.90
2019-05-22T04:50:16.174Z,90.00
2019-05-22T04:52:47.583Z,90.10
2019-05-22T04:55:18.436Z,90.00
2019-05-22T04:57:49.691Z,90.10
2019-05-22T05:00:22.236Z,90.10
2019-05-22T05:02:52.489Z,90.10
2019-05-22T05:05:25.981Z,90.10
2019-05-22T05:07:57.027Z,90.00
2019-05-22T05:10:27.966Z,90.20
2019-05-22T05:12:59.813Z,90.00
2019-05-22T05:15:30.136Z,90.00
2019-05-22T05:18:00.872Z,90.10
2019-05-22T05:20:31.199Z,90.00
2019-05-22T05:23:01.526Z,90.10
2019-05-22T05:25:32.262Z,90.10
2019-05-22T05:28:05.456Z,90.20
2019-05-22T05:30:36.194Z,90.20
2019-05-22T05:33:06.760Z,90.10
2019-05-22T05:35:37.778Z,90.20
2019-05-22T05:38:08.763Z,90.10
2019-05-22T05:40:40.739Z,90.30
2019-05-22T05:43:12.542Z,90.20
2019-05-22T05:45:44.587Z,90.20
2019-05-22T05:48:17.696Z,90.20
2019-05-22T05:51:05.636Z,90.20
2019-05-22T05:53:40.473Z,90.30
2019-05-22T05:56:15.300Z,90.30
2019-05-22T05:58:45.628Z,90.20
2019-05-22T06:01:26.266Z,90.20
2019-05-22T06:03:59.034Z,90.20
2019-05-22T06:06:35.155Z,90.20
2019-05-22T06:09:08.662Z,90.30
2019-05-22T06:11:45.275Z,90.30
2019-05-22T06:14:20.973Z,90.30
2019-05-22T06:17:01.354Z,90.30
2019-05-22T06:19:31.874Z,90.30
2019-05-22T06:22:02.800Z,90.20
2019-05-22T06:24:37.221Z,90.20
2019-05-22T06:27:11.821Z,90.30
2019-05-22T06:30:04.113Z,90.30
2019-05-22T06:32:58.087Z,90.40
2019-05-22T06:35:32.395Z,90.30
2019-05-22T06:38:20.943Z,90.40
2019-05-22T06:40:51.498Z,90.40
2019-05-22T06:54:23.427Z,90.40
2019-05-22T06:56:53.550Z,90.50
2019-05-22T06:59:24.086Z,90.50
2019-05-22T07:02:01.105Z,90.50
2019-05-22T07:04:26.174Z,90.40
2019-05-22T07:06:57.765Z,90.60
2019-05-22T07:09:29.693Z,90.50
2019-05-22T07:12:00.021Z,90.50
2019-05-22T07:14:32.192Z,90.50
2019-05-22T07:17:02.399Z,90.50
2019-05-22T07:19:34.304Z,90.60
2019-05-22T07:22:04.732Z,90.60
2019-05-22T07:24:35.771Z,90.60
2019-05-22T07:27:26.692Z,90.50
2019-05-22T07:29:57.511Z,90.60
2019-05-22T07:32:30.844Z,90.50
2019-05-22T07:35:00.065Z,90.60
2019-05-22T07:37:30.652Z,90.80
2019-05-22T07:40:01.065Z,90.50
2019-05-22T07:42:31.601Z,90.60
2019-05-22T07:45:02.031Z,90.60
2019-05-22T07:47:32.492Z,90.60
2019-05-22T07:50:02.796Z,90.60
2019-05-22T07:52:33.526Z,90.60
2019-05-22T07:55:04.793Z,90.50
2019-05-22T07:57:36.792Z,90.50
2019-05-22T08:00:07.374Z,90.50
2019-05-22T08:02:40.982Z,90.50
2019-05-22T08:05:12.054Z,90.60
2019-05-22T08:07:42.374Z,91.00
2019-05-22T08:10:16.080Z,90.60
2019-05-22T08:12:46.606Z,90.60
2019-05-22T08:15:18.182Z,90.60
2019-05-22T08:17:49.297Z,90.60
2019-05-22T08:20:19.794Z,90.60
2019-05-22T08:22:51.702Z,90.60
2019-05-22T08:25:22.218Z,90.60
2019-05-22T08:27:52.646Z,90.60
2019-05-22T08:30:23.184Z,90.60
2019-05-22T08:32:54.454Z,90.60
2019-05-22T08:35:24.981Z,90.60
2019-05-22T08:37:56.692Z,90.70
2019-05-22T08:40:27.560Z,90.70
2019-05-22T08:42:58.462Z,90.60
2019-05-22T08:45:29.040Z,90.70
2019-05-22T08:47:59.401Z,90.60
2019-05-22T08:50:31.348Z,90.60
2019-05-22T08:53:03.103Z,90.70
2019-05-22T08:55:34.491Z,90.70
2019-05-22T08:58:04.979Z,90.70
2019-05-22T09:00:35.506Z,90.70
2019-05-22T09:03:06.362Z,90.90
2019-05-22T09:05:36.376Z,90.70
2019-05-22T09:08:06.491Z,90.70
2019-05-22T09:10:37.969Z,90.60
2019-05-22T09:13:08.373Z,90.60
2019-05-22T09:15:40.015Z,90.70
2019-05-22T09:18:11.931Z,90.80
2019-05-22T09:20:49.270Z,90.60
2019-05-22T09:23:14.735Z,90.70
2019-05-22T09:25:44.931Z,90.60
2019-05-22T09:28:15.666Z,90.60
2019-05-22T09:30:45.998Z,90.60
2019-05-22T09:33:16.643Z,90.60
2019-05-22T09:35:47.169Z,90.60
2019-05-22T09:38:17.609Z,90.70
2019-05-22T09:40:48.735Z,90.70
2019-05-22T09:43:19.191Z,90.60
2019-05-22T09:45:50.018Z,90.40
2019-05-22T09:48:21.723Z,90.60
2019-05-22T09:50:51.891Z,90.50
2019-05-22T09:53:22.419Z,90.50
2019-05-22T09:55:52.951Z,90.40
2019-05-22T09:58:23.399Z,90.30
2019-05-22T10:00:53.604Z,90.30
2019-05-22T10:03:24.173Z,90.50
2019-05-22T10:05:55.078Z,90.40
2019-05-22T10:08:25.400Z,90.60
2019-05-22T10:10:57.493Z,90.70
2019-05-22T10:13:29.250Z,90.60
2019-05-22T10:15:59.981Z,90.40
2019-05-22T10:18:30.919Z,90.50
2019-05-22T10:21:01.337Z,90.50
2019-05-22T10:23:32.403Z,90.50
2019-05-22T10:26:03.137Z,90.60
2019-05-22T10:28:33.547Z,90.60
2019-05-22T10:31:04.126Z,90.50
2019-05-22T10:33:34.408Z,90.50
2019-05-22T10:36:04.739Z,90.40
2019-05-22T10:38:35.180Z,90.40
2019-05-22T10:41:05.906Z,90.40
2019-05-22T10:43:36.172Z,90.50
2019-05-22T10:46:06.544Z,90.50
2019-05-22T10:48:41.159Z,90.40
2019-05-22T10:51:14.157Z,90.40
2019-05-22T10:53:48.619Z,90.60
2019-05-22T10:56:19.550Z,90.40
2019-05-22T10:58:49.656Z,90.40
2019-05-22T11:01:19.779Z,90.50
2019-05-22T11:03:51.083Z,90.50
2019-05-22T11:06:21.935Z,90.40
2019-05-22T11:08:52.499Z,90.70
2019-05-22T11:11:23.272Z,90.30
2019-05-22T11:14:01.420Z,90.20
2019-05-22T11:16:29.422Z,90.10
2019-05-22T11:19:00.129Z,90.10
2019-05-22T11:21:33.230Z,90.10
2019-05-22T11:24:04.246Z,90.10
2019-05-22T11:26:35.531Z,90.00
2019-05-22T11:29:07.969Z,90.00
2019-05-22T11:31:40.384Z,90.10
2019-05-22T11:34:11.453Z,90.20
2019-05-22T11:36:42.803Z,90.00
2019-05-22T11:39:15.178Z,90.00
2019-05-22T11:41:47.875Z,89.90
2019-05-22T11:44:19.610Z,90.10
2019-05-22T11:46:50.556Z,90.00
2019-05-22T11:49:20.967Z,90.00
2019-05-22T11:51:51.289Z,90.00
2019-05-22T11:54:21.819Z,90.00
2019-05-22T11:56:52.150Z,89.90
2019-05-22T11:59:24.556Z,89.90
2019-05-22T12:01:56.341Z,89.60
2019-05-22T12:04:26.809Z,89.40
2019-05-22T12:06:57.751Z,89.40
2019-05-22T12:09:31.538Z,89.40
2019-05-22T12:12:02.713Z,89.30
2019-05-22T12:14:33.126Z,89.20
2019-05-22T12:17:04.076Z,89.10
2019-05-22T12:19:34.923Z,89.40
2019-05-22T12:22:05.537Z,89.40
2019-05-22T12:24:37.061Z,89.20
2019-05-22T12:27:08.030Z,89.00
2019-05-22T12:29:38.907Z,88.90
2019-05-22T12:32:09.092Z,88.90
2019-05-22T12:34:39.440Z,88.70
2019-05-22T12:37:10.155Z,88.90
2019-05-22T12:39:41.094Z,88.70
2019-05-22T12:42:13.889Z,88.60
2019-05-22T12:44:44.197Z,88.60
2019-05-22T12:47:16.159Z,88.60
2019-05-22T12:49:46.857Z,88.80
2019-05-22T12:52:17.302Z,88.60
2019-05-22T12:54:52.124Z,89.00
2019-05-22T12:57:19.731Z,88.90
2019-05-22T12:59:50.879Z,88.60
2019-05-22T13:02:22.122Z,88.80
2019-05-22T13:04:53.354Z,88.80
2019-05-22T13:07:24.569Z,88.80
2019-05-22T13:09:55.029Z,88.40
2019-05-22T13:12:25.968Z,88.60
2019-05-22T13:15:08.922Z,88.30
2019-05-22T13:17:28.940Z,88.20
2019-05-22T13:20:00.278Z,88.20
2019-05-22T13:22:30.771Z,87.70
2019-05-22T13:25:03.337Z,87.90
2019-05-22T13:27:35.097Z,87.80
2019-05-22T13:30:08.993Z,87.50
2019-05-22T13:32:39.954Z,87.30
2019-05-22T13:35:12.008Z,87.60
2019-05-22T13:37:43.203Z,87.60
2019-05-22T13:40:27.096Z,86.90
2019-05-22T13:42:46.269Z,87.10
2019-05-22T13:45:28.323Z,86.70
2019-05-22T13:47:49.347Z,86.60
2019-05-22T13:50:21.393Z,86.50
2019-05-22T13:52:52.355Z,86.50
2019-05-22T13:55:23.137Z,87.00
2019-05-22T13:57:53.482Z,85.90
2019-05-22T14:00:25.303Z,85.70
2019-05-22T14:02:55.954Z,85.90
2019-05-22T14:05:28.001Z,85.90
2019-05-22T14:07:58.326Z,86.10
2019-05-22T14:10:29.266Z,85.70
2019-05-22T14:13:00.819Z,86.10
2019-05-22T14:15:47.969Z,85.50
2019-05-22T14:18:03.315Z,84.60
2019-05-22T14:20:33.641Z,85.10
2019-05-22T14:23:03.879Z,85.20
2019-05-22T14:25:34.823Z,85.50
2019-05-22T14:28:06.053Z,85.50
2019-05-22T14:30:36.214Z,85.60
2019-05-22T14:33:07.109Z,85.10
2019-05-22T14:35:48.361Z,85.10
2019-05-22T14:38:12.180Z,85.00
2019-05-22T14:40:42.796Z,84.60
2019-05-22T14:43:13.536Z,84.60
2019-05-22T14:45:43.878Z,84.60
2019-05-22T14:48:15.326Z,84.50
2019-05-22T14:50:45.939Z,84.30
2019-05-22T14:53:17.085Z,84.70
2019-05-22T14:55:47.619Z,84.20
2019-05-22T14:58:18.146Z,84.60
2019-05-22T15:00:49.117Z,84.80
2019-05-22T15:03:19.840Z,84.20
2019-05-22T15:05:50.759Z,83.90
2019-05-22T15:08:20.877Z,82.80
2019-05-22T15:10:51.000Z,83.00
2019-05-22T15:13:21.939Z,83.40
2019-05-22T15:15:52.476Z,83.10
2019-05-22T15:18:22.795Z,83.10
2019-05-22T15:21:09.832Z,82.90
2019-05-22T15:23:41.488Z,82.60
2019-05-22T15:26:12.006Z,82.60
2019-05-22T15:28:42.330Z,82.60
2019-05-22T15:31:12.620Z,82.20
2019-05-22T15:33:43.593Z,81.80
2019-05-22T15:36:17.401Z,81.60
2019-05-22T15:38:48.819Z,82.30
2019-05-22T15:41:19.690Z,81.90
2019-05-22T15:43:53.188Z,81.90
2019-05-22T15:46:25.047Z,81.90
2019-05-22T15:48:56.599Z,82.10
2019-05-22T15:51:30.324Z,81.80
2019-05-22T15:54:02.583Z,81.60
2019-05-22T15:56:34.663Z,81.50
2019-05-22T15:59:07.667Z,81.10
2019-05-22T16:01:38.070Z,80.90
2019-05-22T16:04:11.286Z,81.10
2019-05-22T16:06:42.515Z,80.50
2019-05-22T16:09:15.594Z,80.10
2019-05-22T16:11:49.070Z,79.70
2019-05-22T16:14:21.176Z,79.80
2019-05-22T16:16:53.484Z,80.50
2019-05-22T16:19:25.665Z,79.70
2019-05-22T16:21:59.303Z,79.90
2019-05-22T16:24:29.947Z,81.10
2019-05-22T16:27:00.975Z,81.50
2019-05-22T16:29:32.015Z,81.40
2019-05-22T16:32:04.719Z,81.00
2019-05-22T16:34:36.453Z,80.40
2019-05-22T16:37:08.333Z,80.50
2019-05-22T16:39:40.586Z,80.40
2019-05-22T16:42:10.708Z,80.70
2019-05-22T16:44:42.059Z,80.80
2019-05-22T16:47:12.997Z,80.80
2019-05-22T16:49:43.734Z,80.40
2019-05-22T16:52:14.701Z,80.20
2019-05-22T16:54:47.247Z,80.00
2019-05-22T16:57:17.696Z,80.00
2019-05-22T16:59:48.428Z,79.70
2019-05-22T17:02:19.824Z,79.40
2019-05-22T17:04:50.186Z,79.30
2019-05-22T17:07:20.839Z,79.40
2019-05-22T17:09:52.012Z,79.60
2019-05-22T17:12:23.841Z,79.60
2019-05-22T17:14:54.564Z,79.50
2019-05-22T17:17:25.108Z,79.30
2019-05-22T17:19:55.985Z,79.10
2019-05-22T17:22:27.311Z,79.50
2019-05-22T17:24:57.819Z,79.20
2019-05-22T17:27:29.258Z,79.30
2019-05-22T17:29:59.789Z,78.90
2019-05-22T17:32:30.321Z,78.30
2019-05-22T17:35:00.761Z,78.70
2019-05-22T17:37:32.332Z,78.70
2019-05-22T17:40:06.017Z,79.00
2019-05-22T17:42:37.969Z,78.70
2019-05-22T17:45:12.801Z,78.50
2019-05-22T17:47:43.564Z,78.90
2019-05-22T17:50:26.235Z,78.60
2019-05-22T17:52:49.527Z,79.00
2019-05-22T17:55:21.269Z,78.80
2019-05-22T17:57:51.395Z,78.90
2019-05-22T18:00:29.704Z,78.20
2019-05-22T18:03:01.259Z,78.20
2019-05-22T18:05:32.116Z,78.90
2019-05-22T18:08:02.873Z,78.80
2019-05-22T18:10:40.156Z,78.80
2019-05-22T18:13:10.343Z,78.50
2019-05-22T18:15:44.279Z,79.10
2019-05-22T18:18:15.004Z,79.00
2019-05-22T18:20:45.213Z,79.20
2019-05-22T18:23:15.539Z,78.40
2019-05-22T18:25:46.084Z,78.50
2019-05-22T18:28:16.802Z,78.40
2019-05-22T18:30:47.456Z,78.60
2019-05-22T18:33:17.861Z,78.70
2019-05-22T18:35:48.212Z,78.20
2019-05-22T18:38:18.236Z,78.70
2019-05-22T18:40:48.456Z,78.30
2019-05-22T18:43:19.022Z,78.60
2019-05-22T18:45:49.091Z,78.60
2019-05-22T18:48:19.245Z,78.40
2019-05-22T18:50:49.728Z,78.90
2019-05-22T18:53:20.297Z,78.60
2019-05-22T18:55:50.414Z,78.20
2019-05-22T18:58:21.060Z,78.20
2019-05-22T19:00:51.644Z,78.30
2019-05-22T19:03:21.971Z,77.80
2019-05-22T19:05:52.351Z,78.00
2019-05-22T19:08:22.622Z,78.10
2019-05-22T19:10:52.753Z,77.40
2019-05-22T19:13:22.990Z,77.50
2019-05-22T19:15:58.220Z,78.00
2019-05-22T19:18:28.430Z,77.70
2019-05-22T19:20:58.761Z,77.90
2019-05-22T19:23:29.084Z,77.80
2019-05-22T19:25:59.203Z,77.70
2019-05-22T19:28:42.762Z,77.90
2019-05-22T19:31:01.801Z,77.90
2019-05-22T19:33:31.952Z,78.00
2019-05-22T19:36:01.987Z,77.60
2019-05-22T19:38:32.253Z,77.40
2019-05-22T19:41:02.402Z,77.40
2019-05-22T19:43:33.037Z,77.70
2019-05-22T19:46:03.465Z,77.60
2019-05-22T19:48:34.383Z,77.50
2019-05-22T19:51:05.243Z,77.30
2019-05-22T19:53:36.406Z,77.50
2019-05-22T19:56:07.031Z,77.50
2019-05-22T19:58:38.059Z,77.10
2019-05-22T20:01:09.281Z,77.30
2019-05-22T20:03:39.519Z,77.40
2019-05-22T20:06:09.935Z,77.60
2019-05-22T20:08:41.077Z,77.30
2019-05-22T20:11:11.728Z,77.70
2019-05-22T20:13:43.173Z,77.30
2019-05-22T20:16:14.025Z,77.60
2019-05-22T20:18:44.634Z,77.30
2019-05-22T20:21:15.164Z,77.50
2019-05-22T20:23:46.021Z,77.50
2019-05-22T20:26:16.431Z,78.00
2019-05-22T20:28:46.551Z,77.30
2019-05-22T20:31:17.416Z,77.50
2019-05-22T20:33:48.020Z,77.90
2019-05-22T20:36:18.876Z,77.30
2019-05-22T20:38:49.082Z,77.50
2019-05-22T20:41:20.435Z,77.40
2019-05-22T20:43:51.171Z,77.90
2019-05-22T20:46:22.149Z,78.00
2019-05-22T20:48:52.862Z,77.50
2019-05-22T20:51:26.241Z,77.30
2019-05-22T20:53:56.973Z,77.10
2019-05-22T20:56:29.843Z,77.40
2019-05-22T20:59:01.725Z,78.10
2019-05-22T21:01:34.011Z,78.30
2019-05-22T21:04:06.794Z,77.90
2019-05-22T21:06:43.499Z,77.30
2019-05-22T21:09:15.105Z,78.60
2019-05-22T21:11:45.435Z,78.00
2019-05-22T21:14:15.789Z,78.60
2019-05-22T21:16:46.647Z,78.90
2019-05-22T21:19:18.474Z,78.30
2019-05-22T21:21:48.579Z,77.80
2019-05-22T21:24:19.439Z,77.60
2019-05-22T21:26:49.635Z,77.60
2019-05-22T21:29:20.285Z,77.30
2019-05-22T21:31:50.902Z,77.60
2019-05-22T21:34:21.878Z,77.70
2019-05-22T21:36:51.963Z,77.50
2019-05-22T21:39:22.290Z,78.90
2019-05-22T21:41:53.231Z,77.70
2019-05-22T21:44:23.345Z,77.90
2019-05-22T21:46:55.083Z,78.20
2019-05-22T21:49:25.961Z,78.80
2019-05-22T21:51:56.369Z,77.70
2019-05-22T21:54:27.311Z,77.80
2019-05-22T21:56:57.637Z,78.40
2019-05-22T21:59:28.084Z,77.80
2019-05-22T22:01:59.926Z,77.80
2019-05-22T22:04:32.299Z,77.70
2019-05-22T22:07:04.481Z,78.50
2019-05-22T22:09:35.833Z,78.10
2019-05-22T22:12:08.525Z,78.00
2019-05-22T22:14:38.726Z,78.00
2019-05-22T22:17:10.607Z,78.00
2019-05-22T22:19:40.805Z,78.10
2019-05-22T22:22:13.998Z,79.00
2019-05-22T22:24:45.365Z,78.40
2019-05-22T22:27:16.287Z,79.20
2019-05-22T22:29:46.816Z,78.60
2019-05-22T22:32:18.577Z,78.50
2019-05-22T22:34:52.177Z,79.10
2019-05-22T22:37:23.309Z,78.20
2019-05-22T22:39:57.137Z,78.50
2019-05-22T22:42:29.834Z,77.90
2019-05-22T22:45:00.854Z,78.10
2019-05-22T22:47:35.688Z,78.10
2019-05-22T22:50:08.591Z,78.20
2019-05-22T22:52:40.345Z,77.90
2019-05-22T22:55:14.761Z,78.40
2019-05-22T22:57:47.034Z,77.90
2019-05-22T23:00:20.217Z,77.80
2019-05-22T23:02:51.889Z,78.20
2019-05-22T23:05:22.711Z,77.80
2019-05-22T23:07:53.948Z,78.10
2019-05-22T23:10:24.998Z,78.00
2019-05-22T23:12:55.322Z,77.70
2019-05-22T23:15:27.001Z,78.20
2019-05-22T23:17:57.816Z,77.80
2019-05-22T23:20:26.711Z,78.20
2019-05-22T23:22:55.602Z,78.40
2019-05-22T23:25:26.551Z,78.10
2019-05-22T23:27:56.870Z,77.80
2019-05-22T23:30:28.121Z,78.50
2019-05-22T23:32:58.450Z,77.80
2019-05-22T23:35:29.805Z,77.90
2019-05-22T23:38:00.012Z,78.40
2019-05-22T23:40:33.331Z,78.60
2019-05-22T23:43:05.289Z,77.80
2019-05-22T23:45:35.831Z,77.80
2019-05-22T23:48:15.282Z,77.60
2019-05-22T23:50:47.414Z,78.10
2019-05-22T23:53:18.713Z,77.90
2019-05-22T23:55:49.082Z,78.00
2019-05-22T23:58:20.379Z,77.90
